createdAt,value
2017-05-03T00:00:31.896Z,7.93
2017-05-03T00:01:12.488Z,7.97
2017-05-03T00:01:53.018Z,7.93
2017-05-03T00:02:33.552Z,7.98
2017-05-03T00:03:14.065Z,8.02
2017-05-03T00:03:54.580Z,7.92
2017-05-03T00:04:35.111Z,7.97
2017-05-03T00:05:15.632Z,7.95
2017-05-03T00:05:56.165Z,8
2017-05-03T00:06:36.688Z,7.97
2017-05-03T00:07:17.188Z,7.97
2017-05-03T00:07:57.715Z,8.01
2017-05-03T00:08:38.232Z,7.93
2017-05-03T00:09:18.806Z,7.93
2017-05-03T00:09:59.299Z,8
2017-05-03T00:10:39.817Z,8.07
2017-05-03T00:11:20.343Z,8.05
2017-05-03T00:12:00.852Z,8.02
2017-05-03T00:12:41.375Z,8.05
2017-05-03T00:13:21.897Z,8.08
2017-05-03T00:14:02.423Z,8.11
2017-05-03T00:14:42.950Z,7.95
2017-05-03T00:15:23.477Z,8.11
2017-05-03T00:16:03.996Z,8.1
2017-05-03T00:16:44.522Z,8
2017-05-03T00:17:25.050Z,8.04
2017-05-03T00:18:05.576Z,8.05
2017-05-03T00:18:46.095Z,8.11
2017-05-03T00:19:26.612Z,8.04
2017-05-03T00:20:07.152Z,8.04
2017-05-03T00:20:47.686Z,8.08
2017-05-03T00:21:28.198Z,8.02
2017-05-03T00:22:08.722Z,8.15
2017-05-03T00:22:49.261Z,8.07
2017-05-03T00:23:29.800Z,8.02
2017-05-03T00:24:10.313Z,8.08
2017-05-03T00:24:50.840Z,8.15
2017-05-03T00:25:31.378Z,8.16
2017-05-03T00:26:11.909Z,8.16
2017-05-03T00:26:52.414Z,8.07
2017-05-03T00:27:32.944Z,8.11
2017-05-03T00:28:13.467Z,8.07
2017-05-03T00:28:54.000Z,8.18
2017-05-03T00:29:34.506Z,8.1
2017-05-03T00:30:15.043Z,8.08
2017-05-03T00:30:55.581Z,8.23
2017-05-03T00:31:36.106Z,8.07
2017-05-03T00:32:16.628Z,8.23
2017-05-03T00:32:57.146Z,8.1
2017-05-03T00:33:37.654Z,8.11
2017-05-03T00:34:18.174Z,8.12
2017-05-03T00:34:58.704Z,8.15
2017-05-03T00:35:39.215Z,8.07
2017-05-03T00:36:19.725Z,8.15
2017-05-03T00:37:00.211Z,8.11
2017-05-03T00:37:40.724Z,8.16
2017-05-03T00:38:21.234Z,8.16
2017-05-03T00:39:01.765Z,8.11
2017-05-03T00:39:42.279Z,8.1
2017-05-03T00:40:22.804Z,8.25
2017-05-03T00:41:03.336Z,8.2
2017-05-03T00:41:43.840Z,8.2
2017-05-03T00:42:24.354Z,8.2
2017-05-03T00:43:04.879Z,8.11
2017-05-03T00:43:45.402Z,8.16
2017-05-03T00:44:25.914Z,8.19
2017-05-03T00:45:06.448Z,8.2
2017-05-03T00:45:46.973Z,8.22
2017-05-03T00:46:27.510Z,8.23
2017-05-03T00:47:08.043Z,8.23
2017-05-03T00:47:48.561Z,8.23
2017-05-03T00:48:29.099Z,8.26
2017-05-03T00:49:09.657Z,8.22
2017-05-03T00:49:50.179Z,8.22
2017-05-03T00:50:30.706Z,8.26
2017-05-03T00:51:11.230Z,8.22
2017-05-03T00:51:51.750Z,8.22
2017-05-03T00:52:32.277Z,8.25
2017-05-03T00:53:12.785Z,8.22
2017-05-03T00:53:53.309Z,8.23
2017-05-03T00:54:33.822Z,8.19
2017-05-03T00:55:14.353Z,8.23
2017-05-03T00:55:54.880Z,8.23
2017-05-03T00:56:35.390Z,8.26
2017-05-03T00:57:15.918Z,8.26
2017-05-03T00:57:56.428Z,8.29
2017-05-03T00:58:36.953Z,8.26
2017-05-03T00:59:17.490Z,8.26
2017-05-03T00:59:58.019Z,8.22
2017-05-03T01:00:38.511Z,8.22
2017-05-03T01:01:19.040Z,8.22
2017-05-03T01:01:59.567Z,8.2
2017-05-03T01:02:40.084Z,8.19
2017-05-03T01:03:20.592Z,8.23
2017-05-03T01:04:01.108Z,8.22
2017-05-03T01:04:41.614Z,8.26
2017-05-03T01:05:22.173Z,8.25
2017-05-03T01:06:02.697Z,8.26
2017-05-03T01:06:43.243Z,8.28
2017-05-03T01:07:23.787Z,8.26
2017-05-03T01:08:04.321Z,8.26
2017-05-03T01:08:44.842Z,8.26
2017-05-03T01:09:25.368Z,8.23
2017-05-03T01:10:05.865Z,8.26
2017-05-03T01:10:46.389Z,8.26
2017-05-03T01:11:26.928Z,8.25
2017-05-03T01:12:07.429Z,8.23
2017-05-03T01:12:47.973Z,8.29
2017-05-03T01:13:28.501Z,8.28
2017-05-03T01:14:09.016Z,8.26
2017-05-03T01:14:49.544Z,8.23
2017-05-03T01:15:30.056Z,8.25
2017-05-03T01:16:10.569Z,8.2
2017-05-03T01:16:51.100Z,8.22
2017-05-03T01:17:31.626Z,8.23
2017-05-03T01:18:12.145Z,8.23
2017-05-03T01:18:52.645Z,8.23
2017-05-03T01:19:33.164Z,8.2
2017-05-03T01:20:13.684Z,8.22
2017-05-03T01:20:54.211Z,8.26
2017-05-03T01:21:34.742Z,8.26
2017-05-03T01:22:15.253Z,8.26
2017-05-03T01:22:55.780Z,8.22
2017-05-03T01:23:36.296Z,8.26
2017-05-03T01:24:16.812Z,8.25
2017-05-03T01:24:57.336Z,8.26
2017-05-03T01:25:37.845Z,8.19
2017-05-03T01:26:18.362Z,8.26
2017-05-03T01:26:58.880Z,8.2
2017-05-03T01:27:39.396Z,8.26
2017-05-03T01:28:19.914Z,8.22
2017-05-03T01:29:00.453Z,8.3
2017-05-03T01:29:40.991Z,8.25
2017-05-03T01:30:21.504Z,8.25
2017-05-03T01:31:02.038Z,8.2
2017-05-03T01:31:42.565Z,8.26
2017-05-03T01:32:25.587Z,8.23
2017-05-03T01:33:06.098Z,8.22
2017-05-03T01:33:46.632Z,8.25
2017-05-03T01:34:27.148Z,8.25
2017-05-03T01:35:07.665Z,8.22
2017-05-03T01:35:48.174Z,8.23
2017-05-03T01:36:28.686Z,8.19
2017-05-03T01:37:09.213Z,8.22
2017-05-03T01:37:49.735Z,8.2
2017-05-03T01:38:30.245Z,8.19
2017-05-03T01:39:10.767Z,8.2
2017-05-03T01:39:51.304Z,8.19
2017-05-03T01:40:31.829Z,8.12
2017-05-03T01:41:12.373Z,8.22
2017-05-03T01:41:52.866Z,8.22
2017-05-03T01:42:33.390Z,8.12
2017-05-03T01:43:13.901Z,8.2
2017-05-03T01:43:54.402Z,8.28
2017-05-03T01:44:34.921Z,8.19
2017-05-03T01:45:15.442Z,8.2
2017-05-03T01:45:55.994Z,8.2
2017-05-03T01:46:36.531Z,8.26
2017-05-03T01:47:17.077Z,8.28
2017-05-03T01:47:57.616Z,8.23
2017-05-03T01:48:38.144Z,8.22
2017-05-03T01:49:18.730Z,8.23
2017-05-03T01:49:59.245Z,8.22
2017-05-03T01:50:39.758Z,8.23
2017-05-03T01:51:20.279Z,8.22
2017-05-03T01:52:00.811Z,8.22
2017-05-03T01:52:41.335Z,8.26
2017-05-03T01:53:21.856Z,8.2
2017-05-03T01:54:02.380Z,8.22
2017-05-03T01:54:42.899Z,8.29
2017-05-03T01:55:23.441Z,8.3
2017-05-03T01:56:03.980Z,8.2
2017-05-03T01:56:44.499Z,8.23
2017-05-03T01:57:25.022Z,8.29
2017-05-03T01:58:05.537Z,8.28
2017-05-03T01:58:46.066Z,8.19
2017-05-03T01:59:26.601Z,8.23
2017-05-03T02:00:07.146Z,8.22
2017-05-03T02:00:47.678Z,8.2
2017-05-03T02:01:28.209Z,8.2
2017-05-03T02:02:08.730Z,8.07
2017-05-03T02:02:49.262Z,8.11
2017-05-03T02:03:29.793Z,8.08
2017-05-03T02:04:10.310Z,8.08
2017-05-03T02:04:50.836Z,8.04
2017-05-03T02:05:31.371Z,8.11
2017-05-03T02:06:11.897Z,8.19
2017-05-03T02:06:52.416Z,8.11
2017-05-03T02:07:32.966Z,8.16
2017-05-03T02:08:13.505Z,8.11
2017-05-03T02:08:54.044Z,8.08
2017-05-03T02:09:34.585Z,8.1
2017-05-03T02:10:15.086Z,8.11
2017-05-03T02:10:55.612Z,8.08
2017-05-03T02:11:36.145Z,8.05
2017-05-03T02:12:16.674Z,8.05
2017-05-03T02:12:57.177Z,8.07
2017-05-03T02:13:37.709Z,8.12
2017-05-03T02:14:18.231Z,8.05
2017-05-03T02:14:58.758Z,8.02
2017-05-03T02:15:39.286Z,8.07
2017-05-03T02:16:19.801Z,8.05
2017-05-03T02:17:00.337Z,8.04
2017-05-03T02:17:40.853Z,7.97
2017-05-03T02:18:21.374Z,7.95
2017-05-03T02:19:01.872Z,7.95
2017-05-03T02:19:42.389Z,7.97
2017-05-03T02:20:22.914Z,7.95
2017-05-03T02:21:03.448Z,7.93
2017-05-03T02:21:43.985Z,7.89
2017-05-03T02:22:24.493Z,8
2017-05-03T02:23:05.011Z,8.02
2017-05-03T02:23:45.542Z,7.92
2017-05-03T02:24:26.084Z,7.95
2017-05-03T02:25:06.601Z,7.93
2017-05-03T02:25:47.158Z,7.95
2017-05-03T02:26:27.683Z,7.93
2017-05-03T02:27:08.223Z,7.97
2017-05-03T02:27:48.748Z,7.95
2017-05-03T02:28:29.261Z,8.01
2017-05-03T02:29:09.798Z,7.97
2017-05-03T02:29:50.325Z,7.9
2017-05-03T02:30:30.854Z,8.01
2017-05-03T02:31:11.363Z,7.97
2017-05-03T02:31:51.888Z,8.01
2017-05-03T02:32:32.395Z,7.97
2017-05-03T02:33:12.933Z,7.97
2017-05-03T02:33:53.447Z,8
2017-05-03T02:34:33.980Z,7.93
2017-05-03T02:35:14.512Z,8.05
2017-05-03T02:35:55.048Z,7.95
2017-05-03T02:36:35.567Z,7.97
2017-05-03T02:37:16.069Z,7.93
2017-05-03T02:37:56.597Z,7.95
2017-05-03T02:38:37.126Z,7.97
2017-05-03T02:39:17.634Z,7.93
2017-05-03T02:39:58.181Z,7.98
2017-05-03T02:40:38.672Z,7.97
2017-05-03T02:41:19.181Z,7.93
2017-05-03T02:41:59.711Z,7.92
2017-05-03T02:42:40.241Z,7.95
2017-05-03T02:43:20.759Z,7.98
2017-05-03T02:44:01.276Z,7.95
2017-05-03T02:44:41.803Z,7.97
2017-05-03T02:45:22.333Z,8
2017-05-03T02:46:02.848Z,7.97
2017-05-03T02:46:43.382Z,7.98
2017-05-03T02:47:23.897Z,7.97
2017-05-03T02:48:04.432Z,7.98
2017-05-03T02:48:44.944Z,7.95
2017-05-03T02:49:25.480Z,8
2017-05-03T02:50:05.994Z,7.93
2017-05-03T02:50:46.521Z,7.92
2017-05-03T02:51:27.041Z,7.97
2017-05-03T02:52:07.553Z,8.01
2017-05-03T02:52:48.059Z,7.92
2017-05-03T02:53:28.583Z,7.98
2017-05-03T02:54:09.097Z,7.95
2017-05-03T02:54:49.609Z,8.05
2017-05-03T02:55:30.146Z,7.92
2017-05-03T02:56:10.662Z,7.93
2017-05-03T02:56:51.190Z,7.95
2017-05-03T02:57:31.728Z,8.04
2017-05-03T02:58:12.260Z,7.95
2017-05-03T02:58:52.768Z,7.92
2017-05-03T02:59:33.302Z,7.95
2017-05-03T03:00:13.826Z,7.97
2017-05-03T03:00:54.358Z,7.89
2017-05-03T03:01:34.917Z,7.93
2017-05-03T03:02:15.434Z,7.92
2017-05-03T03:02:55.937Z,7.9
2017-05-03T03:03:36.459Z,7.98
2017-05-03T03:04:16.968Z,7.9
2017-05-03T03:04:57.500Z,7.92
2017-05-03T03:05:37.988Z,7.98
2017-05-03T03:06:18.532Z,8
2017-05-03T03:06:59.039Z,7.97
2017-05-03T03:07:39.555Z,7.92
2017-05-03T03:08:20.089Z,7.95
2017-05-03T03:09:00.600Z,7.97
2017-05-03T03:09:41.111Z,7.92
2017-05-03T03:10:21.621Z,7.95
2017-05-03T03:11:02.139Z,7.92
2017-05-03T03:11:42.668Z,7.93
2017-05-03T03:12:23.194Z,7.95
2017-05-03T03:13:03.696Z,7.93
2017-05-03T03:13:44.220Z,7.93
2017-05-03T03:14:24.709Z,7.95
2017-05-03T03:15:05.205Z,7.86
2017-05-03T03:15:45.707Z,7.82
2017-05-03T03:16:26.203Z,7.75
2017-05-03T03:17:06.780Z,7.82
2017-05-03T03:17:47.231Z,7.87
2017-05-03T03:18:27.749Z,7.89
2017-05-03T03:19:08.250Z,7.85
2017-05-03T03:19:48.767Z,7.86
2017-05-03T03:20:29.277Z,7.87
2017-05-03T03:21:09.759Z,7.83
2017-05-03T03:21:50.282Z,7.8
2017-05-03T03:22:30.791Z,7.8
2017-05-03T03:23:11.295Z,7.86
2017-05-03T03:23:51.809Z,7.85
2017-05-03T03:24:32.334Z,7.85
2017-05-03T03:25:12.844Z,7.83
2017-05-03T03:25:53.367Z,7.82
2017-05-03T03:26:33.880Z,7.86
2017-05-03T03:27:14.398Z,7.8
2017-05-03T03:27:54.925Z,7.85
2017-05-03T03:28:35.451Z,7.83
2017-05-03T03:29:15.980Z,7.86
2017-05-03T03:29:56.502Z,7.86
2017-05-03T03:30:37.020Z,7.82
2017-05-03T03:31:17.534Z,7.82
2017-05-03T03:31:58.044Z,7.83
2017-05-03T03:32:38.557Z,7.85
2017-05-03T03:33:19.147Z,7.83
2017-05-03T03:33:59.677Z,7.85
2017-05-03T03:34:40.183Z,7.82
2017-05-03T03:35:20.753Z,7.82
2017-05-03T03:36:01.247Z,7.83
2017-05-03T03:36:41.780Z,7.8
2017-05-03T03:37:22.302Z,7.82
2017-05-03T03:38:02.848Z,7.83
2017-05-03T03:38:43.366Z,7.82
2017-05-03T03:39:23.910Z,7.82
2017-05-03T03:40:04.410Z,7.82
2017-05-03T03:40:44.915Z,7.86
2017-05-03T03:41:25.451Z,7.87
2017-05-03T03:42:05.978Z,7.85
2017-05-03T03:42:46.450Z,7.85
2017-05-03T03:43:26.950Z,7.86
2017-05-03T03:44:07.447Z,7.77
2017-05-03T03:44:48.027Z,7.83
2017-05-03T03:45:28.535Z,7.87
2017-05-03T03:46:09.058Z,7.83
2017-05-03T03:46:49.575Z,7.85
2017-05-03T03:47:30.097Z,7.92
2017-05-03T03:48:10.604Z,7.87
2017-05-03T03:48:51.128Z,7.83
2017-05-03T03:49:31.637Z,7.83
2017-05-03T03:50:12.149Z,7.89
2017-05-03T03:50:52.725Z,7.82
2017-05-03T03:51:33.304Z,7.8
2017-05-03T03:52:13.885Z,7.89
2017-05-03T03:52:54.410Z,7.75
2017-05-03T03:53:34.933Z,7.82
2017-05-03T03:54:15.451Z,7.8
2017-05-03T03:54:55.974Z,7.79
2017-05-03T03:55:36.483Z,7.83
2017-05-03T03:56:17.002Z,7.87
2017-05-03T03:56:57.507Z,7.87
2017-05-03T03:57:38.020Z,7.87
2017-05-03T03:58:18.582Z,7.85
2017-05-03T03:58:59.116Z,7.9
2017-05-03T03:59:39.654Z,7.89
2017-05-03T04:00:20.189Z,7.9
2017-05-03T04:01:00.777Z,7.9
2017-05-03T04:01:41.299Z,7.95
2017-05-03T04:02:21.817Z,7.97
2017-05-03T04:03:02.338Z,7.95
2017-05-03T04:03:42.859Z,7.95
2017-05-03T04:04:23.487Z,7.98
2017-05-03T04:05:04.006Z,7.89
2017-05-03T04:05:44.489Z,7.98
2017-05-03T04:06:24.996Z,7.9
2017-05-03T04:07:05.490Z,7.95
2017-05-03T04:07:45.980Z,7.92
2017-05-03T04:08:26.481Z,7.95
2017-05-03T04:09:06.986Z,7.97
2017-05-03T04:09:47.466Z,7.89
2017-05-03T04:10:28.009Z,7.9
2017-05-03T04:11:08.471Z,7.95
2017-05-03T04:11:48.967Z,7.89
2017-05-03T04:12:29.494Z,7.89
2017-05-03T04:13:10.007Z,7.95
2017-05-03T04:13:50.538Z,7.93
2017-05-03T04:14:31.041Z,8.05
2017-05-03T04:15:11.522Z,7.95
2017-05-03T04:15:52.037Z,7.92
2017-05-03T04:16:32.550Z,7.9
2017-05-03T04:17:13.047Z,8.01
2017-05-03T04:17:53.577Z,8.08
2017-05-03T04:18:34.113Z,7.93
2017-05-03T04:19:14.647Z,8.01
2017-05-03T04:19:55.184Z,7.95
2017-05-03T04:20:35.701Z,7.95
2017-05-03T04:21:16.216Z,7.92
2017-05-03T04:21:56.737Z,7.98
2017-05-03T04:22:37.249Z,7.93
2017-05-03T04:23:17.777Z,7.97
2017-05-03T04:23:58.312Z,7.93
2017-05-03T04:24:38.813Z,7.98
2017-05-03T04:25:19.356Z,7.93
2017-05-03T04:25:59.882Z,7.93
2017-05-03T04:26:40.388Z,8.01
2017-05-03T04:27:20.930Z,7.98
2017-05-03T04:28:01.445Z,7.95
2017-05-03T04:28:41.978Z,8.01
2017-05-03T04:29:22.500Z,8.05
2017-05-03T04:30:02.973Z,8.08
2017-05-03T04:30:43.497Z,8.04
2017-05-03T04:31:24.012Z,8.05
2017-05-03T04:32:04.544Z,8.1
2017-05-03T04:32:45.071Z,8.01
2017-05-03T04:33:25.564Z,8.12
2017-05-03T04:34:06.068Z,8.12
2017-05-03T04:34:46.567Z,8.08
2017-05-03T04:35:27.191Z,8.04
2017-05-03T04:36:07.629Z,8.12
2017-05-03T04:36:48.124Z,8.1
2017-05-03T04:37:28.695Z,8.11
2017-05-03T04:38:09.184Z,8.12
2017-05-03T04:38:49.682Z,8.07
2017-05-03T04:39:30.206Z,8.1
2017-05-03T04:40:10.694Z,8.23
2017-05-03T04:40:51.225Z,8.12
2017-05-03T04:41:31.754Z,8.1
2017-05-03T04:42:12.239Z,8.22
2017-05-03T04:42:52.752Z,8.12
2017-05-03T04:43:33.329Z,8.15
2017-05-03T04:44:13.788Z,8.19
2017-05-03T04:44:54.302Z,8.11
2017-05-03T04:45:34.801Z,8.18
2017-05-03T04:46:15.319Z,8.1
2017-05-03T04:46:55.824Z,8.18
2017-05-03T04:47:36.347Z,8.15
2017-05-03T04:48:16.876Z,8.11
2017-05-03T04:48:57.423Z,8.12
2017-05-03T04:49:37.953Z,8.16
2017-05-03T04:50:18.477Z,8.19
2017-05-03T04:50:58.990Z,8.26
2017-05-03T04:51:39.492Z,8.22
2017-05-03T04:52:20.015Z,8.25
2017-05-03T04:53:00.554Z,8.23
2017-05-03T04:53:41.065Z,8.29
2017-05-03T04:54:21.554Z,8.29
2017-05-03T04:55:02.096Z,8.29
2017-05-03T04:55:42.595Z,8.3
2017-05-03T04:56:23.066Z,8.3
2017-05-03T04:57:03.541Z,8.28
2017-05-03T04:57:44.053Z,8.4
2017-05-03T04:58:24.572Z,8.34
2017-05-03T04:59:05.100Z,8.33
2017-05-03T04:59:45.586Z,8.33
2017-05-03T05:00:26.095Z,8.28
2017-05-03T05:01:06.615Z,8.37
2017-05-03T05:01:47.122Z,8.37
2017-05-03T05:02:27.612Z,8.38
2017-05-03T05:03:08.162Z,8.28
2017-05-03T05:03:48.694Z,8.25
2017-05-03T05:04:29.205Z,8.36
2017-05-03T05:05:09.699Z,8.34
2017-05-03T05:05:50.198Z,8.37
2017-05-03T05:06:30.729Z,8.37
2017-05-03T05:07:11.252Z,8.4
2017-05-03T05:07:51.795Z,8.38
2017-05-03T05:08:32.348Z,8.41
2017-05-03T05:09:12.848Z,8.34
2017-05-03T05:09:53.369Z,8.45
2017-05-03T05:10:33.881Z,8.44
2017-05-03T05:11:14.380Z,8.43
2017-05-03T05:11:54.894Z,8.4
2017-05-03T05:12:35.397Z,8.44
2017-05-03T05:13:15.900Z,8.4
2017-05-03T05:13:56.470Z,8.45
2017-05-03T05:14:37.024Z,8.43
2017-05-03T05:15:17.521Z,8.43
2017-05-03T05:15:58.054Z,8.48
2017-05-03T05:16:38.597Z,8.44
2017-05-03T05:17:19.111Z,8.4
2017-05-03T05:17:59.613Z,8.48
2017-05-03T05:18:40.170Z,8.5
2017-05-03T05:19:20.714Z,8.47
2017-05-03T05:20:01.244Z,8.43
2017-05-03T05:20:41.766Z,8.5
2017-05-03T05:21:22.286Z,8.53
2017-05-03T05:22:02.819Z,8.5
2017-05-03T05:22:43.355Z,8.47
2017-05-03T05:23:23.919Z,8.53
2017-05-03T05:24:04.427Z,8.59
2017-05-03T05:24:45.020Z,8.55
2017-05-03T05:25:25.484Z,8.55
2017-05-03T05:26:05.972Z,8.5
2017-05-03T05:26:46.463Z,8.61
2017-05-03T05:27:26.961Z,8.59
2017-05-03T05:28:07.564Z,8.53
2017-05-03T05:28:48.065Z,8.52
2017-05-03T05:29:28.584Z,8.55
2017-05-03T05:30:09.129Z,8.56
2017-05-03T05:30:51.303Z,8.48
2017-05-03T05:31:31.806Z,8.48
2017-05-03T05:32:12.335Z,8.48
2017-05-03T05:32:52.851Z,8.53
2017-05-03T05:33:33.366Z,8.5
2017-05-03T05:34:13.877Z,8.44
2017-05-03T05:34:54.422Z,8.41
2017-05-03T05:35:34.969Z,8.36
2017-05-03T05:36:15.514Z,8.45
2017-05-03T05:36:56.089Z,8.41
2017-05-03T05:37:36.562Z,8.36
2017-05-03T05:38:17.045Z,8.28
2017-05-03T05:38:57.543Z,8.4
2017-05-03T05:39:38.102Z,8.38
2017-05-03T05:40:18.565Z,8.47
2017-05-03T05:40:59.101Z,8.37
2017-05-03T05:41:39.653Z,8.41
2017-05-03T05:42:20.140Z,8.4
2017-05-03T05:43:00.644Z,8.45
2017-05-03T05:43:41.169Z,8.52
2017-05-03T05:44:21.680Z,8.55
2017-05-03T05:45:02.174Z,8.53
2017-05-03T05:45:42.651Z,8.59
2017-05-03T05:46:23.129Z,8.65
2017-05-03T05:47:03.910Z,8.55
2017-05-03T05:47:44.677Z,8.47
2017-05-03T05:48:25.166Z,8.52
2017-05-03T05:49:05.670Z,8.55
2017-05-03T05:49:46.183Z,8.47
2017-05-03T05:50:26.688Z,8.55
2017-05-03T05:51:07.234Z,8.61
2017-05-03T05:51:47.704Z,8.55
2017-05-03T05:52:28.232Z,8.58
2017-05-03T05:53:08.732Z,8.52
2017-05-03T05:53:49.229Z,8.61
2017-05-03T05:54:29.736Z,8.63
2017-05-03T05:55:10.236Z,8.59
2017-05-03T05:55:50.733Z,8.62
2017-05-03T05:56:31.268Z,8.7
2017-05-03T05:57:11.812Z,8.59
2017-05-03T05:57:52.343Z,8.7
2017-05-03T05:58:32.859Z,8.73
2017-05-03T05:59:13.390Z,8.66
2017-05-03T05:59:53.893Z,8.74
2017-05-03T06:00:34.413Z,8.74
2017-05-03T06:01:14.912Z,8.8
2017-05-03T06:01:55.407Z,8.7
2017-05-03T06:02:35.937Z,8.71
2017-05-03T06:03:16.478Z,8.77
2017-05-03T06:03:56.994Z,8.71
2017-05-03T06:04:37.503Z,8.73
2017-05-03T06:05:18.032Z,8.71
2017-05-03T06:05:58.599Z,8.77
2017-05-03T06:06:39.131Z,8.76
2017-05-03T06:07:19.650Z,8.77
2017-05-03T06:08:00.161Z,8.83
2017-05-03T06:08:40.694Z,8.77
2017-05-03T06:09:21.242Z,8.84
2017-05-03T06:10:01.734Z,8.87
2017-05-03T06:10:42.271Z,8.91
2017-05-03T06:11:22.805Z,8.89
2017-05-03T06:12:03.324Z,8.81
2017-05-03T06:12:43.833Z,8.89
2017-05-03T06:13:24.372Z,8.91
2017-05-03T06:14:04.874Z,8.89
2017-05-03T06:14:45.388Z,8.89
2017-05-03T06:15:25.950Z,8.89
2017-05-03T06:16:06.449Z,8.96
2017-05-03T06:16:46.976Z,8.92
2017-05-03T06:17:27.480Z,8.92
2017-05-03T06:18:07.976Z,8.92
2017-05-03T06:18:48.509Z,8.91
2017-05-03T06:19:28.996Z,8.87
2017-05-03T06:20:09.495Z,8.91
2017-05-03T06:20:50.023Z,8.92
2017-05-03T06:21:30.519Z,8.89
2017-05-03T06:22:11.043Z,8.92
2017-05-03T06:22:51.554Z,8.86
2017-05-03T06:23:32.084Z,8.84
2017-05-03T06:24:12.609Z,8.84
2017-05-03T06:24:53.166Z,8.83
2017-05-03T06:25:33.687Z,8.94
2017-05-03T06:26:14.289Z,8.95
2017-05-03T06:26:54.844Z,8.94
2017-05-03T06:27:35.381Z,8.95
2017-05-03T06:28:15.890Z,8.96
2017-05-03T06:28:56.415Z,9.01
2017-05-03T06:29:36.945Z,9.01
2017-05-03T06:30:17.489Z,9.01
2017-05-03T06:30:58.016Z,9.15
2017-05-03T06:31:38.524Z,9.13
2017-05-03T06:32:19.075Z,9.23
2017-05-03T06:32:59.574Z,9.28
2017-05-03T06:33:40.089Z,9.23
2017-05-03T06:34:20.584Z,9.21
2017-05-03T06:35:01.108Z,9.24
2017-05-03T06:35:41.580Z,9.2
2017-05-03T06:36:23.072Z,9.15
2017-05-03T06:37:03.920Z,9.15
2017-05-03T06:37:44.682Z,9.17
2017-05-03T06:38:25.491Z,9.18
2017-05-03T06:39:06.025Z,9.23
2017-05-03T06:39:46.544Z,9.24
2017-05-03T06:40:27.072Z,9.15
2017-05-03T06:41:07.613Z,9.23
2017-05-03T06:41:48.133Z,9.24
2017-05-03T06:42:28.661Z,9.26
2017-05-03T06:43:09.179Z,9.32
2017-05-03T06:43:49.717Z,9.23
2017-05-03T06:44:30.234Z,9.32
2017-05-03T06:45:10.765Z,9.31
2017-05-03T06:45:51.311Z,9.36
2017-05-03T06:46:31.837Z,9.39
2017-05-03T06:47:12.369Z,9.39
2017-05-03T06:47:52.877Z,9.46
2017-05-03T06:48:33.407Z,9.4
2017-05-03T06:49:13.938Z,9.47
2017-05-03T06:49:54.494Z,9.5
2017-05-03T06:50:35.001Z,9.46
2017-05-03T06:51:15.509Z,9.47
2017-05-03T06:51:56.025Z,9.48
2017-05-03T06:52:36.547Z,9.43
2017-05-03T06:53:17.083Z,9.47
2017-05-03T06:53:57.572Z,9.47
2017-05-03T06:54:38.107Z,9.5
2017-05-03T06:55:18.619Z,9.5
2017-05-03T06:55:59.142Z,9.43
2017-05-03T06:56:39.645Z,9.53
2017-05-03T06:57:20.153Z,9.5
2017-05-03T06:58:00.710Z,9.51
2017-05-03T06:58:41.224Z,9.51
2017-05-03T06:59:21.747Z,9.53
2017-05-03T07:00:02.285Z,9.6
2017-05-03T07:00:42.801Z,9.64
2017-05-03T07:01:23.326Z,9.65
2017-05-03T07:02:03.856Z,9.69
2017-05-03T07:02:44.372Z,9.65
2017-05-03T07:03:24.882Z,9.78
2017-05-03T07:04:05.424Z,9.75
2017-05-03T07:04:45.950Z,9.84
2017-05-03T07:05:26.451Z,9.76
2017-05-03T07:06:06.993Z,9.79
2017-05-03T07:06:47.529Z,9.86
2017-05-03T07:07:28.046Z,9.9
2017-05-03T07:08:08.567Z,9.84
2017-05-03T07:08:49.100Z,9.89
2017-05-03T07:09:29.627Z,9.87
2017-05-03T07:10:10.149Z,9.96
2017-05-03T07:10:50.652Z,9.99
2017-05-03T07:11:31.188Z,9.86
2017-05-03T07:12:11.704Z,9.94
2017-05-03T07:12:52.233Z,9.87
2017-05-03T07:13:32.767Z,9.91
2017-05-03T07:14:13.329Z,9.94
2017-05-03T07:14:53.801Z,9.96
2017-05-03T07:15:34.335Z,9.99
2017-05-03T07:16:14.854Z,10.02
2017-05-03T07:16:55.386Z,9.91
2017-05-03T07:17:35.889Z,9.89
2017-05-03T07:18:16.429Z,9.87
2017-05-03T07:18:56.931Z,9.9
2017-05-03T07:19:37.453Z,9.96
2017-05-03T07:20:17.973Z,9.96
2017-05-03T07:20:58.501Z,9.96
2017-05-03T07:21:39.040Z,9.91
2017-05-03T07:22:19.569Z,9.96
2017-05-03T07:23:00.093Z,10.05
2017-05-03T07:23:40.622Z,9.91
2017-05-03T07:24:21.153Z,9.97
2017-05-03T07:25:01.653Z,9.96
2017-05-03T07:25:42.171Z,9.97
2017-05-03T07:26:22.700Z,9.97
2017-05-03T07:27:03.220Z,9.96
2017-05-03T07:27:43.744Z,9.9
2017-05-03T07:28:24.256Z,9.86
2017-05-03T07:29:04.769Z,9.86
2017-05-03T07:29:45.295Z,9.87
2017-05-03T07:30:25.831Z,9.91
2017-05-03T07:31:06.335Z,9.93
2017-05-03T07:31:46.861Z,9.87
2017-05-03T07:32:27.378Z,9.89
2017-05-03T07:33:07.901Z,9.91
2017-05-03T07:33:48.422Z,9.87
2017-05-03T07:34:28.943Z,9.87
2017-05-03T07:35:09.476Z,9.9
2017-05-03T07:35:50.001Z,9.84
2017-05-03T07:36:30.524Z,9.91
2017-05-03T07:37:11.031Z,9.87
2017-05-03T07:37:51.550Z,9.81
2017-05-03T07:38:32.072Z,9.84
2017-05-03T07:39:12.580Z,9.86
2017-05-03T07:39:53.094Z,9.89
2017-05-03T07:40:33.599Z,9.89
2017-05-03T07:41:14.111Z,9.9
2017-05-03T07:41:54.631Z,9.87
2017-05-03T07:42:35.166Z,9.91
2017-05-03T07:43:15.694Z,9.94
2017-05-03T07:43:56.216Z,9.94
2017-05-03T07:44:36.750Z,9.86
2017-05-03T07:45:17.290Z,9.91
2017-05-03T07:45:57.822Z,9.87
2017-05-03T07:46:38.350Z,9.97
2017-05-03T07:47:18.878Z,9.99
2017-05-03T07:47:59.393Z,10.02
2017-05-03T07:48:39.919Z,9.94
2017-05-03T07:49:20.456Z,10.08
2017-05-03T07:50:00.969Z,10.02
2017-05-03T07:50:41.506Z,10.12
2017-05-03T07:51:22.013Z,10.04
2017-05-03T07:52:02.530Z,10.07
2017-05-03T07:52:43.061Z,10.04
2017-05-03T07:53:23.595Z,10.14
2017-05-03T07:54:04.135Z,10.2
2017-05-03T07:54:44.655Z,10.15
2017-05-03T07:55:25.173Z,10.2
2017-05-03T07:56:05.683Z,10.25
2017-05-03T07:56:46.186Z,10.25
2017-05-03T07:57:26.713Z,10.29
2017-05-03T07:58:07.286Z,10.32
2017-05-03T07:58:47.766Z,10.3
2017-05-03T07:59:28.303Z,10.34
2017-05-03T08:00:08.823Z,10.33
2017-05-03T08:00:49.363Z,10.36
2017-05-03T08:01:29.908Z,10.41
2017-05-03T08:02:10.427Z,10.34
2017-05-03T08:02:50.969Z,10.4
2017-05-03T08:03:31.504Z,10.38
2017-05-03T08:04:12.036Z,10.4
2017-05-03T08:04:52.561Z,10.4
2017-05-03T08:05:33.098Z,10.41
2017-05-03T08:06:13.619Z,10.53
2017-05-03T08:06:54.181Z,10.52
2017-05-03T08:07:34.744Z,10.55
2017-05-03T08:08:15.269Z,10.53
2017-05-03T08:08:55.790Z,10.48
2017-05-03T08:09:36.296Z,10.55
2017-05-03T08:10:16.809Z,10.59
2017-05-03T08:10:57.339Z,10.66
2017-05-03T08:11:37.861Z,10.63
2017-05-03T08:12:18.389Z,10.63
2017-05-03T08:12:58.914Z,10.68
2017-05-03T08:13:39.444Z,10.64
2017-05-03T08:14:19.960Z,10.82
2017-05-03T08:15:00.486Z,10.76
2017-05-03T08:15:41.014Z,10.76
2017-05-03T08:16:21.551Z,10.82
2017-05-03T08:17:02.072Z,10.84
2017-05-03T08:17:42.585Z,10.84
2017-05-03T08:18:23.096Z,10.89
2017-05-03T08:19:03.630Z,10.96
2017-05-03T08:19:44.177Z,10.92
2017-05-03T08:20:24.648Z,11.04
2017-05-03T08:21:05.198Z,11.04
2017-05-03T08:21:45.737Z,11.15
2017-05-03T08:22:26.280Z,11.29
2017-05-03T08:23:06.816Z,11.28
2017-05-03T08:23:47.353Z,11.42
2017-05-03T08:24:27.888Z,11.4
2017-05-03T08:25:08.418Z,11.37
2017-05-03T08:25:48.947Z,11.32
2017-05-03T08:26:29.474Z,11.24
2017-05-03T08:27:10.013Z,11.17
2017-05-03T08:27:50.556Z,11.09
2017-05-03T08:28:31.088Z,11.07
2017-05-03T08:29:11.607Z,11.11
2017-05-03T08:29:52.148Z,11.1
2017-05-03T08:30:32.718Z,11.14
2017-05-03T08:31:13.227Z,11.07
2017-05-03T08:31:53.731Z,11.15
2017-05-03T08:32:34.276Z,11.1
2017-05-03T08:33:14.807Z,11.15
2017-05-03T08:33:55.350Z,11.15
2017-05-03T08:34:35.851Z,11.19
2017-05-03T08:35:16.376Z,11.19
2017-05-03T08:35:56.916Z,11.17
2017-05-03T08:36:37.410Z,11.15
2017-05-03T08:37:17.930Z,11.15
2017-05-03T08:37:58.456Z,11.15
2017-05-03T08:38:38.991Z,11.04
2017-05-03T08:39:19.494Z,11.09
2017-05-03T08:40:00.011Z,10.99
2017-05-03T08:40:40.547Z,11.03
2017-05-03T08:41:21.063Z,10.94
2017-05-03T08:42:01.589Z,10.88
2017-05-03T08:42:42.118Z,10.91
2017-05-03T08:43:22.654Z,10.78
2017-05-03T08:44:03.188Z,10.76
2017-05-03T08:44:43.712Z,10.74
2017-05-03T08:45:24.243Z,10.78
2017-05-03T08:46:04.763Z,10.81
2017-05-03T08:46:45.306Z,10.78
2017-05-03T08:47:25.834Z,10.76
2017-05-03T08:48:06.370Z,10.81
2017-05-03T08:48:46.903Z,10.74
2017-05-03T08:49:27.426Z,10.76
2017-05-03T08:50:07.949Z,10.91
2017-05-03T08:50:48.482Z,10.82
2017-05-03T08:51:29.004Z,10.88
2017-05-03T08:52:09.565Z,10.88
2017-05-03T08:52:50.081Z,10.84
2017-05-03T08:53:30.597Z,10.86
2017-05-03T08:54:11.122Z,10.89
2017-05-03T08:54:51.653Z,10.86
2017-05-03T08:55:32.177Z,10.84
2017-05-03T08:56:12.714Z,10.84
2017-05-03T08:56:53.230Z,10.84
2017-05-03T08:57:33.766Z,10.84
2017-05-03T08:58:14.295Z,10.84
2017-05-03T08:58:54.812Z,10.84
2017-05-03T08:59:35.343Z,10.91